La Farge, Wisconsin
Current Conditions -  °F | °C
As of 2:15 AM on Thursday 29 Jan 2015 (Local Time) from KY51 Reporting Station
Overcast Overcast  
Wind Chill: 24°   Ceiling: 200
Heat Index: 30°   Visibility: 1.2mi
Dew Point: 30°   Wind: 6mph
Humidity: 100%   Direction: 350°N
Pressure: 29.78"   Gusts: NA
Location:  43.57°N, 90.64°W
Report Text: KY51 290815Z AUTO 35005KT 1 1/4SM OVC002 M01/M01 A2978 RMK AO1 T10101010
Loading
Personal Weather Stations






























Interactive Weather Map New forecast layout! Learn more

10-Day Weather Forecast

Advertisements
Track Severe Weather on mobile